createdAt,value
2023-05-08T00:01:25.291Z,65.70
2023-05-08T00:03:52.589Z,65.91
2023-05-08T00:06:19.503Z,66.03
2023-05-08T00:08:46.086Z,65.31
2023-05-08T00:11:12.664Z,64.87
2023-05-08T00:13:41.216Z,64.94
2023-05-08T00:16:12.679Z,65.31
2023-05-08T00:18:39.924Z,65.62
2023-05-08T00:21:12.657Z,65.88
2023-05-08T00:23:39.323Z,65.56
2023-05-08T00:26:05.940Z,65.40
2023-05-08T00:28:32.472Z,64.98
2023-05-08T00:31:02.325Z,64.16
2023-05-08T00:33:29.071Z,65.25
2023-05-08T00:36:05.675Z,65.22
2023-05-08T00:38:33.766Z,65.35
2023-05-08T00:41:01.271Z,65.09
2023-05-08T00:43:28.691Z,65.18
2023-05-08T00:45:57.105Z,65.10
2023-05-08T00:48:25.343Z,64.31
2023-05-08T00:50:54.464Z,64.91
2023-05-08T00:53:23.125Z,63.75
2023-05-08T00:55:51.690Z,64.49
2023-05-08T00:58:20.972Z,64.16
2023-05-08T01:00:50.643Z,63.97
2023-05-08T01:03:17.493Z,64.15
2023-05-08T01:05:44.328Z,63.76
2023-05-08T01:08:10.914Z,64.32
2023-05-08T01:11:19.244Z,63.99
2023-05-08T01:14:04.656Z,64.28
2023-05-08T01:16:49.947Z,63.63
2023-05-08T01:19:44.509Z,63.18
2023-05-08T01:22:52.500Z,63.51
2023-05-08T01:25:41.838Z,64.06
2023-05-08T01:28:20.162Z,64.29
2023-05-08T01:31:24.038Z,64.06
2023-05-08T01:34:00.025Z,63.40
2023-05-08T01:36:51.753Z,63.18
2023-05-08T01:40:00.944Z,62.75
2023-05-08T01:42:49.159Z,63.04
2023-05-08T01:45:22.316Z,63.40
2023-05-08T01:47:55.069Z,63.16
2023-05-08T01:50:30.479Z,63.66
2023-05-08T01:53:00.424Z,63.89
2023-05-08T01:55:34.256Z,63.79
2023-05-08T01:58:04.823Z,63.76
2023-05-08T02:00:31.847Z,63.83
2023-05-08T02:02:59.227Z,63.72
2023-05-08T02:05:28.394Z,64.28
2023-05-08T02:07:55.896Z,63.93
2023-05-08T02:10:25.910Z,64.50
2023-05-08T02:12:54.557Z,64.30
2023-05-08T02:15:22.199Z,63.75
2023-05-08T02:17:50.470Z,64.00
2023-05-08T02:20:20.089Z,64.83
2023-05-08T02:22:50.361Z,64.92
2023-05-08T02:25:18.106Z,64.13
2023-05-08T02:27:50.429Z,65.17
2023-05-08T02:30:19.096Z,65.52
2023-05-08T02:32:47.779Z,65.27
2023-05-08T02:35:16.965Z,65.04
2023-05-08T02:37:46.933Z,64.49
2023-05-08T02:40:15.166Z,64.52
2023-05-08T02:42:42.325Z,64.56
2023-05-08T02:45:12.022Z,65.07
2023-05-08T02:48:01.560Z,64.61
2023-05-08T02:51:00.864Z,64.89
2023-05-08T02:53:40.667Z,64.64
2023-05-08T02:56:11.278Z,65.23
2023-05-08T02:58:48.642Z,65.37
2023-05-08T03:01:25.827Z,65.81
2023-05-08T03:04:06.761Z,65.04
2023-05-08T03:06:46.755Z,64.97
2023-05-08T03:09:21.488Z,64.43
2023-05-08T03:11:53.618Z,63.43
2023-05-08T03:14:23.818Z,64.83
2023-05-08T03:16:55.863Z,64.20
2023-05-08T03:19:29.944Z,63.97
2023-05-08T03:21:58.176Z,63.71
2023-05-08T03:24:28.021Z,64.44
2023-05-08T03:26:56.519Z,64.30
2023-05-08T03:29:25.371Z,64.56
2023-05-08T03:31:54.009Z,64.73
2023-05-08T03:34:23.095Z,64.80
2023-05-08T03:36:50.847Z,64.96
2023-05-08T03:39:18.217Z,64.97
2023-05-08T03:41:45.683Z,64.53
2023-05-08T03:44:14.065Z,65.12
2023-05-08T03:46:42.150Z,64.80
2023-05-08T03:49:09.537Z,64.86
2023-05-08T03:51:39.916Z,65.17
2023-05-08T03:54:06.555Z,66.16
2023-05-08T03:56:34.214Z,66.17
2023-05-08T03:59:14.223Z,64.91
2023-05-08T04:01:50.332Z,66.01
2023-05-08T04:04:19.503Z,65.31
2023-05-08T04:07:12.336Z,64.37
2023-05-08T04:10:10.807Z,66.08
2023-05-08T04:12:50.544Z,66.74
2023-05-08T04:15:20.659Z,67.74
2023-05-08T04:17:55.799Z,67.83
2023-05-08T04:20:25.987Z,66.94
2023-05-08T04:22:54.742Z,66.98
2023-05-08T04:25:23.182Z,66.85
2023-05-08T04:27:54.994Z,66.79
2023-05-08T04:30:22.392Z,66.82
2023-05-08T04:32:50.534Z,66.31
2023-05-08T04:35:17.714Z,66.40
2023-05-08T04:37:46.205Z,66.09
2023-05-08T04:40:13.480Z,67.59
2023-05-08T04:42:43.600Z,67.25
2023-05-08T04:45:11.132Z,67.54
2023-05-08T04:47:37.972Z,67.49
2023-05-08T04:50:05.623Z,67.01
2023-05-08T04:52:33.748Z,66.78
2023-05-08T04:55:01.324Z,67.86
2023-05-08T04:57:28.506Z,69.38
2023-05-08T04:59:55.218Z,69.25
2023-05-08T05:02:22.039Z,70.18
2023-05-08T05:04:49.216Z,70.01
2023-05-08T05:07:15.837Z,70.18
2023-05-08T05:09:42.427Z,70.42
2023-05-08T05:12:09.605Z,70.29
2023-05-08T05:14:36.292Z,70.37
2023-05-08T05:17:02.937Z,69.69
2023-05-08T05:19:29.666Z,69.26
2023-05-08T05:21:56.253Z,69.58
2023-05-08T05:24:23.000Z,69.47
2023-05-08T05:26:49.524Z,69.98
2023-05-08T05:29:16.207Z,69.74
2023-05-08T05:31:43.097Z,69.22
2023-05-08T05:34:10.050Z,68.70
2023-05-08T05:36:36.901Z,69.09
2023-05-08T05:39:03.877Z,69.09
2023-05-08T05:41:31.060Z,68.46
2023-05-08T05:43:57.683Z,68.27
2023-05-08T05:46:31.066Z,68.93
2023-05-08T05:48:58.973Z,68.36
2023-05-08T05:51:27.491Z,68.56
2023-05-08T05:53:54.976Z,69.29
2023-05-08T05:56:23.114Z,68.43
2023-05-08T05:58:49.723Z,69.06
2023-05-08T06:05:56.538Z,68.40
2023-05-08T06:08:23.422Z,69.03
2023-05-08T06:10:50.528Z,69.11
2023-05-08T06:13:17.226Z,68.57
2023-05-08T06:15:43.940Z,68.25
2023-05-08T06:18:10.951Z,68.99
2023-05-08T06:20:40.636Z,69.05
2023-05-08T06:23:07.341Z,68.73
2023-05-08T06:25:33.962Z,67.96
2023-05-08T06:28:01.446Z,68.01
2023-05-08T06:35:05.468Z,67.35
2023-05-08T06:37:32.074Z,65.96
2023-05-08T06:40:10.965Z,65.85
2023-05-08T06:42:38.443Z,66.32
2023-05-08T06:45:06.459Z,66.56
2023-05-08T06:47:33.025Z,65.78
2023-05-08T06:50:00.575Z,64.73
2023-05-08T06:52:27.179Z,64.93
2023-05-08T06:54:53.803Z,65.93
2023-05-08T06:57:20.437Z,66.00
2023-05-08T06:59:46.982Z,65.90
2023-05-08T07:02:16.013Z,66.19
2023-05-08T07:04:44.313Z,66.42
2023-05-08T07:07:11.518Z,67.63
2023-05-08T07:09:38.102Z,67.69
2023-05-08T07:21:23.782Z,68.80
2023-05-08T07:23:53.642Z,67.56
2023-05-08T07:26:20.353Z,67.51
2023-05-08T07:28:47.064Z,68.80
2023-05-08T07:31:13.602Z,68.37
2023-05-08T07:33:40.792Z,67.47
2023-05-08T07:36:07.499Z,67.48
2023-05-08T07:38:34.101Z,65.43
2023-05-08T07:49:02.503Z,66.00
2023-05-08T07:51:29.183Z,65.57
2023-05-08T07:53:55.906Z,65.09
2023-05-08T07:56:23.051Z,64.83
2023-05-08T07:58:49.750Z,64.59
2023-05-08T08:01:17.932Z,66.35
2023-05-08T08:03:48.229Z,66.54
2023-05-08T08:06:14.927Z,65.65
2023-05-08T08:08:41.389Z,66.28
2023-05-08T08:11:07.952Z,65.50
2023-05-08T08:13:34.576Z,65.74
2023-05-08T08:16:03.805Z,66.14
2023-05-08T08:18:33.970Z,66.44
2023-05-08T08:21:01.093Z,66.77
2023-05-08T08:23:27.598Z,67.32
2023-05-08T08:25:54.288Z,66.62
2023-05-08T08:28:20.807Z,66.46
2023-05-08T08:30:47.337Z,66.17
2023-05-08T08:33:13.917Z,65.87
2023-05-08T08:35:40.689Z,66.24
2023-05-08T08:38:07.223Z,67.21
2023-05-08T08:40:39.179Z,66.35
2023-05-08T08:43:05.822Z,66.34
2023-05-08T08:45:32.384Z,66.70
2023-05-08T08:48:01.960Z,67.61
2023-05-08T08:50:32.575Z,67.04
2023-05-08T08:53:11.017Z,67.95
2023-05-08T08:55:42.306Z,68.57
2023-05-08T08:58:27.172Z,68.39
2023-05-08T09:00:56.044Z,67.06
2023-05-08T09:03:22.670Z,65.05
2023-05-08T09:05:49.769Z,66.27
2023-05-08T09:08:18.584Z,65.08
2023-05-08T09:10:46.441Z,65.84
2023-05-08T09:13:13.028Z,66.14
2023-05-08T09:15:39.556Z,66.04
2023-05-08T09:18:06.496Z,66.33
2023-05-08T09:20:33.402Z,65.60
2023-05-08T09:23:02.604Z,64.20
2023-05-08T09:25:45.725Z,63.60
2023-05-08T09:28:19.441Z,62.93
2023-05-08T09:30:51.121Z,62.69
2023-05-08T09:33:18.501Z,61.26
2023-05-08T09:35:45.144Z,61.94
2023-05-08T09:38:29.858Z,61.32
2023-05-08T09:41:16.402Z,61.36
2023-05-08T09:43:44.536Z,61.73
2023-05-08T09:46:24.264Z,61.92
2023-05-08T09:48:55.330Z,61.95
2023-05-08T09:51:23.727Z,61.73
2023-05-08T09:54:46.874Z,62.43
2023-05-08T09:57:13.739Z,62.14
2023-05-08T10:04:18.564Z,62.42
2023-05-08T10:10:53.176Z,62.45
2023-05-08T10:13:19.815Z,61.89
2023-05-08T10:20:25.431Z,62.80
2023-05-08T10:22:53.588Z,61.85
2023-05-08T10:25:22.417Z,60.82
2023-05-08T10:28:18.404Z,61.14
2023-05-08T10:30:48.704Z,61.38
2023-05-08T10:33:19.938Z,61.63
2023-05-08T10:35:47.869Z,61.88
2023-05-08T10:38:16.431Z,60.39
2023-05-08T10:40:43.506Z,60.91
2023-05-08T10:43:10.081Z,59.98
2023-05-08T10:45:37.464Z,61.21
2023-05-08T10:48:32.490Z,61.58
2023-05-08T10:51:13.690Z,61.10
2023-05-08T10:53:53.704Z,61.00
2023-05-08T10:56:28.514Z,60.47
2023-05-08T10:58:59.320Z,60.74
2023-05-08T11:01:26.630Z,61.17
2023-05-08T11:03:55.565Z,60.79
2023-05-08T11:06:42.578Z,59.60
2023-05-08T11:09:09.211Z,60.18
2023-05-08T11:11:39.188Z,59.49
2023-05-08T11:14:08.731Z,61.22
2023-05-08T11:17:08.722Z,60.94
2023-05-08T11:19:36.394Z,59.90
2023-05-08T11:22:13.506Z,60.86
2023-05-08T11:25:01.455Z,60.99
2023-05-08T11:27:51.033Z,61.77
2023-05-08T11:30:33.158Z,61.23
2023-05-08T11:33:03.017Z,61.74
2023-05-08T11:35:44.606Z,62.73
2023-05-08T11:38:15.166Z,62.40
2023-05-08T11:40:45.875Z,62.61
2023-05-08T11:43:36.283Z,61.71
2023-05-08T11:46:08.308Z,61.27
2023-05-08T11:48:35.992Z,60.13
2023-05-08T11:51:03.605Z,61.00
2023-05-08T11:53:31.307Z,60.72
2023-05-08T11:55:59.643Z,61.25
2023-05-08T11:58:26.448Z,61.08
2023-05-08T12:00:53.132Z,60.24
2023-05-08T12:03:22.311Z,61.11
2023-05-08T12:05:50.363Z,60.79
2023-05-08T12:08:18.351Z,61.92
2023-05-08T12:10:56.746Z,62.70
2023-05-08T12:13:25.998Z,62.31
2023-05-08T12:15:57.815Z,62.49
2023-05-08T12:18:26.607Z,61.15
2023-05-08T12:20:57.633Z,61.00
2023-05-08T12:23:26.823Z,61.63
2023-05-08T12:25:55.445Z,60.72
2023-05-08T12:28:22.583Z,59.41
2023-05-08T12:30:49.700Z,57.93
2023-05-08T12:33:17.118Z,60.67
2023-05-08T12:35:44.040Z,60.12
2023-05-08T12:38:11.837Z,60.67
2023-05-08T12:40:55.932Z,59.60
2023-05-08T12:43:31.944Z,60.08
2023-05-08T12:45:58.563Z,58.88
2023-05-08T12:48:25.206Z,59.59
2023-05-08T12:50:51.785Z,58.52
2023-05-08T12:53:19.619Z,57.80
2023-05-08T12:55:54.339Z,56.62
2023-05-08T12:58:25.106Z,57.52
2023-05-08T13:00:52.796Z,57.54
2023-05-08T13:03:25.677Z,56.50
2023-05-08T13:05:53.890Z,56.26
2023-05-08T13:08:20.534Z,56.28
2023-05-08T13:10:54.303Z,58.19
2023-05-08T13:13:25.698Z,57.35
2023-05-08T13:15:54.362Z,56.10
2023-05-08T13:18:23.627Z,57.86
2023-05-08T13:20:50.401Z,56.67
2023-05-08T13:23:16.946Z,55.59
2023-05-08T13:25:43.732Z,56.28
2023-05-08T13:28:10.944Z,55.86
2023-05-08T13:30:38.007Z,56.74
2023-05-08T13:33:05.194Z,56.62
2023-05-08T13:35:32.761Z,56.05
2023-05-08T13:37:59.492Z,57.42
2023-05-08T13:40:26.366Z,57.52
2023-05-08T13:42:54.061Z,57.66
2023-05-08T13:45:20.779Z,56.56
2023-05-08T13:47:49.049Z,55.26
2023-05-08T13:50:17.116Z,54.76
2023-05-08T13:52:43.655Z,53.37
2023-05-08T13:55:12.525Z,54.36
2023-05-08T13:57:40.182Z,57.01
2023-05-08T14:00:08.582Z,55.25
2023-05-08T14:02:35.692Z,54.60
2023-05-08T14:05:02.538Z,55.78
2023-05-08T14:07:29.940Z,54.13
2023-05-08T14:09:56.674Z,55.01
2023-05-08T14:12:23.198Z,53.05
2023-05-08T14:14:49.759Z,52.34
2023-05-08T14:17:16.364Z,53.27
2023-05-08T14:19:43.043Z,55.88
2023-05-08T14:22:09.659Z,55.16
2023-05-08T14:24:36.303Z,55.97
2023-05-08T14:27:05.823Z,54.33
2023-05-08T14:29:33.917Z,55.07
2023-05-08T14:32:00.564Z,55.69
2023-05-08T14:34:27.365Z,56.59
2023-05-08T14:36:54.111Z,55.95
2023-05-08T14:39:20.911Z,55.08
2023-05-08T14:41:59.755Z,54.85
2023-05-08T14:44:34.423Z,55.06
2023-05-08T14:47:01.230Z,53.85
2023-05-08T14:49:36.756Z,54.80
2023-05-08T14:52:05.449Z,54.39
2023-05-08T14:54:32.279Z,54.46
2023-05-08T14:56:59.273Z,54.35
2023-05-08T14:59:25.896Z,55.23
2023-05-08T15:01:52.563Z,53.74
2023-05-08T15:04:19.448Z,55.10
2023-05-08T15:06:46.415Z,55.08
2023-05-08T15:09:13.035Z,55.85
2023-05-08T15:11:39.701Z,56.73
2023-05-08T15:14:06.445Z,57.41
2023-05-08T15:16:33.286Z,55.71
2023-05-08T15:18:59.883Z,54.76
2023-05-08T15:21:27.391Z,53.88
2023-05-08T15:23:55.277Z,52.86
2023-05-08T15:26:22.551Z,52.58
2023-05-08T15:28:49.647Z,53.40
2023-05-08T15:31:16.785Z,54.74
2023-05-08T15:33:45.076Z,54.80
2023-05-08T15:36:13.361Z,52.52
2023-05-08T15:38:41.013Z,53.49
2023-05-08T15:41:11.375Z,52.62
2023-05-08T15:43:39.596Z,53.91
2023-05-08T15:46:06.444Z,53.09
2023-05-08T15:48:33.339Z,52.67
2023-05-08T15:50:59.886Z,52.25
2023-05-08T15:53:26.661Z,53.46
2023-05-08T15:55:54.040Z,53.80
2023-05-08T15:58:21.100Z,53.11
2023-05-08T16:00:47.686Z,53.39
2023-05-08T16:03:14.455Z,53.57
2023-05-08T16:05:41.265Z,55.12
2023-05-08T16:08:12.083Z,55.03
2023-05-08T16:10:39.387Z,55.08
2023-05-08T16:13:06.244Z,54.57
2023-05-08T16:15:32.849Z,54.02
2023-05-08T16:17:59.400Z,52.71
2023-05-08T16:20:26.028Z,52.82
2023-05-08T16:22:54.910Z,53.64
2023-05-08T16:25:21.930Z,52.33
2023-05-08T16:27:49.196Z,52.81
2023-05-08T16:30:16.432Z,52.00
2023-05-08T16:32:44.514Z,52.05
2023-05-08T16:35:11.713Z,51.88
2023-05-08T16:37:38.678Z,51.75
2023-05-08T16:40:07.168Z,50.48
2023-05-08T16:42:33.852Z,50.27
2023-05-08T16:45:00.454Z,49.61
2023-05-08T16:47:26.960Z,48.78
2023-05-08T16:49:53.876Z,48.73
2023-05-08T16:52:20.583Z,48.78
2023-05-08T16:54:47.200Z,48.68
2023-05-08T16:57:13.693Z,50.28
2023-05-08T16:59:41.288Z,50.05
2023-05-08T17:02:07.906Z,50.64
2023-05-08T17:04:34.473Z,49.52
2023-05-08T17:07:01.100Z,49.19
2023-05-08T17:09:27.858Z,49.81
2023-05-08T17:11:54.378Z,48.88
2023-05-08T17:14:21.064Z,49.26
2023-05-08T17:16:47.748Z,49.46
2023-05-08T17:19:14.384Z,50.09
2023-05-08T17:21:41.013Z,49.44
2023-05-08T17:24:08.018Z,49.84
2023-05-08T17:26:34.765Z,49.67
2023-05-08T17:29:01.342Z,49.98
2023-05-08T17:31:28.037Z,49.33
2023-05-08T17:33:54.778Z,49.36
2023-05-08T17:36:21.498Z,49.29
2023-05-08T17:38:48.216Z,49.70
2023-05-08T17:41:14.696Z,49.22
2023-05-08T17:43:41.298Z,49.72
2023-05-08T17:46:08.075Z,49.41
2023-05-08T17:48:34.840Z,49.50
2023-05-08T17:51:02.753Z,49.62
2023-05-08T17:53:30.589Z,50.10
2023-05-08T17:55:57.650Z,49.38
2023-05-08T17:58:24.991Z,48.73
2023-05-08T18:00:51.934Z,48.84
2023-05-08T18:03:18.676Z,49.59
2023-05-08T18:05:45.240Z,49.76
2023-05-08T18:08:11.751Z,49.49
2023-05-08T18:10:39.260Z,49.01
2023-05-08T18:13:06.019Z,50.22
2023-05-08T18:15:35.074Z,50.60
2023-05-08T18:18:02.341Z,50.99
2023-05-08T18:20:28.845Z,50.74
2023-05-08T18:22:55.390Z,50.49
2023-05-08T18:25:21.900Z,51.00
2023-05-08T18:27:49.964Z,51.43
2023-05-08T18:30:19.470Z,51.39
2023-05-08T18:32:46.019Z,51.49
2023-05-08T18:35:12.628Z,52.20
2023-05-08T18:37:39.224Z,51.15
2023-05-08T18:40:06.389Z,51.87
2023-05-08T18:42:33.023Z,51.52
2023-05-08T18:45:00.744Z,51.49
2023-05-08T18:47:27.340Z,50.83
2023-05-08T18:49:53.923Z,51.50
2023-05-08T18:52:20.522Z,51.54
2023-05-08T18:54:47.122Z,51.47
2023-05-08T18:57:13.713Z,50.51
2023-05-08T18:59:40.227Z,51.31
2023-05-08T19:02:06.884Z,50.77
2023-05-08T19:04:33.414Z,51.40
2023-05-08T19:07:00.678Z,51.35
2023-05-08T19:09:27.385Z,51.73
2023-05-08T19:11:54.853Z,52.46
2023-05-08T19:14:21.356Z,52.76
2023-05-08T19:16:47.901Z,53.42
2023-05-08T19:19:14.431Z,53.16
2023-05-08T19:21:40.962Z,54.34
2023-05-08T19:24:07.796Z,54.47
2023-05-08T19:26:34.558Z,54.12
2023-05-08T19:29:01.043Z,54.42
2023-05-08T19:31:27.695Z,53.99
2023-05-08T19:33:54.666Z,54.27
2023-05-08T19:36:21.253Z,55.15
2023-05-08T19:38:47.771Z,54.82
2023-05-08T19:41:14.449Z,54.52
2023-05-08T19:43:40.916Z,54.56
2023-05-08T19:46:07.525Z,55.06
2023-05-08T19:48:34.082Z,54.93
2023-05-08T19:51:09.991Z,54.75
2023-05-08T19:53:36.642Z,55.33
2023-05-08T19:56:03.246Z,55.65
2023-05-08T19:58:29.766Z,55.43
2023-05-08T20:00:56.299Z,56.05
2023-05-08T20:03:23.175Z,56.13
2023-05-08T20:05:53.267Z,56.58
2023-05-08T20:08:19.947Z,56.12
2023-05-08T20:10:49.348Z,56.25
2023-05-08T20:13:16.813Z,55.69
2023-05-08T20:15:43.482Z,55.50
2023-05-08T20:18:10.159Z,57.10
2023-05-08T20:20:36.704Z,56.23
2023-05-08T20:23:03.220Z,56.00
2023-05-08T20:25:29.733Z,56.12
2023-05-08T20:27:56.273Z,55.34
2023-05-08T20:30:23.839Z,55.75
2023-05-08T20:32:50.631Z,55.65
2023-05-08T20:35:17.195Z,55.04
2023-05-08T20:37:46.010Z,53.26
2023-05-08T20:40:14.698Z,54.02
2023-05-08T20:42:41.511Z,54.39
2023-05-08T20:45:09.339Z,54.96
2023-05-08T20:47:36.301Z,54.78
2023-05-08T20:50:03.715Z,54.63
2023-05-08T20:52:32.119Z,53.94
2023-05-08T20:54:59.550Z,53.79
2023-05-08T20:57:26.220Z,54.23
2023-05-08T20:59:52.867Z,52.94
2023-05-08T21:02:19.403Z,52.59
2023-05-08T21:04:46.093Z,53.24
2023-05-08T21:07:12.758Z,52.74
2023-05-08T21:09:39.330Z,53.32
2023-05-08T21:12:06.170Z,54.23
2023-05-08T21:14:32.709Z,54.52
2023-05-08T21:16:59.388Z,54.01
2023-05-08T21:19:25.921Z,53.69
2023-05-08T21:21:52.624Z,53.34
2023-05-08T21:24:19.093Z,53.59
2023-05-08T21:26:45.788Z,52.80
2023-05-08T21:29:12.330Z,53.21
2023-05-08T21:31:39.319Z,52.64
2023-05-08T21:34:07.036Z,52.61
2023-05-08T21:36:35.110Z,52.89
2023-05-08T21:39:02.715Z,53.11
2023-05-08T21:41:29.331Z,53.25
2023-05-08T21:43:56.267Z,53.76
2023-05-08T21:46:22.986Z,54.07
2023-05-08T21:48:49.594Z,54.02
2023-05-08T21:51:16.189Z,54.71
2023-05-08T21:53:42.705Z,54.38
2023-05-08T21:56:09.384Z,54.08
2023-05-08T21:58:36.084Z,54.89
2023-05-08T22:01:02.857Z,55.13
2023-05-08T22:03:30.535Z,54.62
2023-05-08T22:05:57.198Z,55.18
2023-05-08T22:08:23.842Z,54.99
2023-05-08T22:10:50.714Z,55.32
2023-05-08T22:13:17.380Z,56.15
2023-05-08T22:15:44.072Z,56.24
2023-05-08T22:18:10.660Z,56.20
2023-05-08T22:20:37.194Z,58.12
2023-05-08T22:23:03.686Z,58.97
2023-05-08T22:25:30.262Z,58.08
2023-05-08T22:27:56.762Z,58.98
2023-05-08T22:30:23.417Z,59.16
2023-05-08T22:32:57.817Z,58.46
2023-05-08T22:35:26.689Z,50.59
2023-05-08T22:37:54.064Z,46.15
2023-05-08T22:40:21.857Z,43.72
2023-05-08T22:42:50.180Z,42.06
2023-05-08T22:45:17.273Z,41.48
2023-05-08T22:47:44.126Z,41.03
2023-05-08T22:59:27.204Z,38.78
2023-05-08T23:01:54.322Z,38.93
2023-05-08T23:04:21.449Z,38.88
2023-05-08T23:06:48.033Z,38.53
2023-05-08T23:09:14.545Z,38.70
2023-05-08T23:11:41.060Z,38.54
2023-05-08T23:14:07.552Z,38.51
2023-05-08T23:16:34.088Z,38.55
2023-05-08T23:19:00.803Z,41.33
2023-05-08T23:26:00.908Z,53.91
2023-05-08T23:28:27.762Z,55.87
2023-05-08T23:35:07.920Z,57.51
2023-05-08T23:37:34.476Z,58.33
2023-05-08T23:40:01.187Z,57.95
2023-05-08T23:46:58.217Z,39.75
2023-05-08T23:49:25.378Z,38.96
2023-05-08T23:51:51.923Z,38.33
2023-05-08T23:54:18.517Z,37.74
2023-05-08T23:56:45.152Z,37.64
2023-05-08T23:59:11.785Z,38.01
